Chaska, MN (55318)

12:42 AM CST on February 14, 2016 (GMT -0600)
Eitel Rd. Cul-de-sac | | Change Station
CLOSE
Current Station
Personal Weather Station
Location: Chaska, MN
Elevation: 975 ft
Nearby Weather Stations

Elev 975 ft 44.83 °N, 93.63 °W | Updated 7 seconds ago

Overcast
Overcast
8.9 °F
Feels Like 2 °F
N
3.5
Wind Variable Wind from East
Gusts 9.2 mph

Today
High -- | Low -- °F
--% Chance of Precip.
Yesterday
High -- | Low -- °F
Precip. -- in
Pressure 30.34 in
Visibility 10.0 miles
Clouds Overcast 7500 ft
Windchill 2 °F
Dew Point -14 °F
Humidity 33%
Rainfall 0.00 in
Snow Depth Not available.
7:17 AM 5:40 PM
Waxing Crescent, 38% visible
METAR KFCM 140553Z AUTO 15008KT 10SM OVC075 M12/M20 A3027 RMK AO2 SLP273 T11221200 11122 21139 411111228 56025
Pressure 30.34 in
Visibility 10.0 miles
Clouds Overcast 7500 ft
Windchill 2 °F
Dew Point -14 °F
Humidity 33%
Rainfall 0.00 in
Snow Depth Not available.
7:17 AM 5:40 PM
Waxing Crescent, 38% visible
METAR KFCM 140553Z AUTO 15008KT 10SM OVC075 M12/M20 A3027 RMK AO2 SLP273 T11221200 11122 21139 411111228 56025

10-Day Weather Forecast

Almanac

Astronomy

Feb. 14, 2016 Rise Set
Actual Time
Civil Twilight
Nautical Twilight
Astronomical Twilight
Moon
Length of Visible Light
Length of Day
Tomorrow will be .
, % of the Moon is Illuminated

Today's Extremes

State Highs State Lows

Community

WunderPhotos

Upload Photos

1,892,757 photos uploaded!

WunderBlog® & News

Nearby

Air Quality

  Air Quality AQ Index Pollutant
Not available.

Snow Depth

Station Depth Elevation

Earthquake Activity

City Distance Mag. Time & Date
Minimum magnitude displayed is 2.5.

Coastal Water Temperatures

Place Temperature

Stations

Nearby Weather Stations

Station Location Temp. Windchill Dew Point Humidity Wind Precip. Elev Updated Type
                   

Watches & Warnings

There are currently no watches in effect.